Capitol Logistics 431


KMSY
Louis Armstrong New Orleans International Airport
New Orleans, Louisiana, US
KBNA
Nashville International Airport
Nashville, Tennessee, US

Activity Log

Date Flight Route Aircraft Duration
09/22/2019 CPX431 N0455F410 HRV MCB J35 XESSS/N0459F350 J35 MEM CHSNE2 B752 1h 29m
06/11/2019 CPX431 KMSY LBY MEI IGB HRTUN CHSNE2 KBNA B752 1h 14m
02/17/2019 CPX431 LBY MEI IGB HRTUN CHSNE2 B752 1h 18m

Route Details

Aircraft Information
Primary: Boeing 757-200SF
Backup: Boeing 737-800BCF
Route Data
Distance: 410nm
Sched. Duration: 1h 19m
Avg. Duration: 1h 20m (+1m)
Times Flown: 3
Recm'd Route: LBY MEI IGB HRTUN CHSNE2
Planned Altitude: 37,000ft
Origin Wx: KMSY 270953Z 34010KT 10SM CLR 07/00 A3033 RMK AO2 SLP272 T00670000
Dest. Wx: KBNA 270953Z 33006KT 10SM OVC039 01/M08 A3021 RMK AO2 SLP234 T00061083
Notes:

Financial History
Total Freight: 149,621lbs
Average Load: 49,874lbs/flt
Fuel Used: 29,064lbs
Avg. Fuel Used: 9,688lbs/flt
Fuel Expense: $30,227
Avg. Fuel Expense: $10,076
Avg. Fuel Cost: $1.04/lbs
Total Gross Income: $193,011
Pilot Pay: $687
Total Expenses: $21,001
Total Revenue: $140,843
Average Revenue: $64,337.03